• Join FlightAware (Why Join?)
  • Login
  • US Flag 
02:02AM EST


 

Airport Tracker/Info


-or-


 

Live Flight TrackerFlight Track Log ✈ ASQ4884 ✈ 02-May-2012 ✈ KLEX - KATL

Flight Track Log - Related Links

Times and Time Zones

All times are in EDT time to prevent confusion due to time zone crossing. See the ASQ4884 flight status page for this flight to view local times or setup timezone preferences in your user account.

Time Position Orientation Groundspeed Altitude Reporting Facility
EDT Latitude Longitude Course Direction KTS MPH feet Rate Location/Type
09:40AM 38.0175 -84.5683 205° Southwest  Level FlightAware Approximate
09:40AM 37.9631 -84.6003 117° Southeast 248 285 3,900  Level Indianapolis Center
09:41AM 37.9264 -84.5075 119° Southeast 289 333 6,300 2,340 Climbing Indianapolis Center
09:42AM 37.8856 -84.4147 137° Southeast 296 341 8,600 2,100 Climbing Indianapolis Center
09:43AM 37.8256 -84.3431 152° Southeast 302 348 10,600 1,500 Climbing Indianapolis Center
09:44AM 37.7422 -84.2872 153° Southeast 320 368 11,600 1,380 Climbing Indianapolis Center
09:45AM 37.6531 -84.2286 154° Southeast 347 399 13,400 1,800 Climbing Indianapolis Center
09:46AM 37.5636 -84.1728 153° Southeast 365 420 15,300 1,800 Climbing Indianapolis Center
09:47AM 37.4722 -84.1144 153° Southeast 359 413 17,000 1,200 Climbing Indianapolis Center
09:48AM 37.3806 -84.0561 153° Southeast 365 420 17,800 900 Climbing Indianapolis Center
09:49AM 37.2828 -83.9928 153° Southeast 370 426 18,800 1,020 Climbing Indianapolis Center
09:50AM 37.1850 -83.9297 153° Southeast 387 445 19,900 1,140 Climbing Indianapolis Center
09:51AM 37.0872 -83.8667 153° Southeast 393 452 21,100 900 Climbing Indianapolis Center
09:54AM 36.8650 -83.7272 154° Southeast 394 453 23,000 540 Climbing Atlanta Center
09:55AM 36.7606 -83.6631 153° Southeast 410 472 23,000  Level Atlanta Center
09:56AM 36.6519 -83.5936 153° Southeast 423 487 23,000  Level Atlanta Center
09:57AM 36.5411 -83.5219 153° Southeast 439 505 23,000  Level Atlanta Center
09:58AM 36.4281 -83.4506 156° South 452 520 23,000  Level Atlanta Center
09:59AM 36.3153 -83.3869 175° South 452 520 23,000  Level Atlanta Center
10:00AM 36.1942 -83.3750 177° South 429 494 23,000  Level Atlanta Center
10:01AM 36.0711 -83.3683 178° South 442 509 23,000  Level Atlanta Center
10:02AM 35.9500 -83.3642 176° South 442 509 23,000  Level Atlanta Center
10:03AM 35.8289 -83.3550 179° South 442 509 23,000  Level Atlanta Center
10:04AM 35.7058 -83.3533 199° South 442 509 23,000  Level Atlanta Center
10:05AM 35.5936 -83.4003 198° South 432 497 23,000  Level Atlanta Center
10:06AM 35.4789 -83.4472 198° South 432 497 23,000  Level Atlanta Center
10:07AM 35.3644 -83.4939 199° South 432 497 23,000  Level Atlanta Center
10:08AM 35.2519 -83.5403 199° South 437 503 23,000  Level Atlanta Center
10:09AM 35.1394 -83.5867 197° South 437 503 23,000  Level Atlanta Center
10:10AM 35.0250 -83.6306 199° South 437 503 23,000  Level Atlanta Center
10:11AM 34.9122 -83.6792 198° South 437 503 23,000  Level Atlanta Center
10:12AM 34.7997 -83.7225 199° South 432 497 23,000  Level Atlanta Center
10:13AM 34.6872 -83.7686 198° South 427 491 23,000 -1,260 Level Atlanta Center
10:14AM 34.5725 -83.8142 199° South 427 491 20,600 -2,340 Descending Atlanta Center
10:15AM 34.4517 -83.8650 197° South 427 491 18,400 -2,160 Descending Atlanta Center
10:16AM 34.3453 -83.9056 199° South 422 486 16,300 -2,160 Descending Atlanta Center
10:17AM 34.2347 -83.9508 205° Southwest 422 486 14,100 -1,680 Descending Atlanta Center
10:18AM 34.1428 -84.0036 215° Southwest 396 456 13,000 -1,080 Descending Atlanta Center
10:19AM 34.0614 -84.0714 215° Southwest 368 423 12,000 -540 Descending Atlanta Center
10:20AM 33.9778 -84.1414 215° Southwest 368 423 12,000  Level Atlanta Center
10:21AM 33.8922 -84.2139 214° Southwest 379 436 12,000  Level Atlanta Center
10:22AM 33.8150 -84.2764 217° Southwest 379 436 12,000 -240 Level Atlanta Center
10:23AM 33.7481 -84.3361 256° West 335 386 11,600 -960 Descending Atlanta Center
10:24AM 33.7311 -84.4183 267° West 257 296 10,100 -1,800 Descending Atlanta Center
10:25AM 33.7267 -84.5158 263° West 264 304 8,000 -2,340 Descending Atlanta Center
10:26AM 33.7167 -84.6167 151° Southeast 252 290 4,900 -2,100 Descending Atlanta TRACON
10:27AM 33.6667 -84.5833 107° East 242 278 3,400 -1,260 Descending Atlanta TRACON
10:28AM 33.6500 -84.5167 90° East 191 220 2,300 -900 Descending Atlanta TRACON
10:29AM 33.6500 -84.4667 90° East 152 175 1,600 -780 Descending Atlanta TRACON